Aérodrome :
LOGIN :

S'inscrire | Disclaimer

   EN    FR    IT 

 










Légende :    VFR   VFR Marginal   IFR   IFR Intensif   IFR Très Intensif
Visi : 
Plafond : 
>= 8 km
>= 3000ft
5 à 8 km
1000 à 3000 ft
1500m à 5 km
500 à 1000 ft
800 à 1500m
200 à 500 ft
< 800m
< 200 ft
Symboles :   Orages  Brouillard  Fortes neiges  Fortes précipitations  Vent > 20 kt
SIGMETs :   Divers  Orages  Givrage  Turbulence  Onde Orograph.  Cendres Volcan.







- Altitude de l'aérodrome : 326 ft
- Code IATA : LCG
- Voir les cartes d'approche


LECO - A Coruna

DERNIER METAR :
  • 142230Z 25006KT 220V280 9999 FEW020 BKN045 11/08 Q1016 NOSIG

METARs EXPIRÉS :
  • 142200Z 27005KT 230V300 9999 FEW020 11/09 Q1016 NOSIG
  • 142130Z 28008KT 240V320 9999 FEW020 12/09 Q1017 NOSIG
  • 142100Z 27007KT 230V320 9999 FEW020 SCT035 12/09 Q1017 NOSIG
  • 142030Z 28003KT 240V320 9999 FEW020 SCT030 BKN035 12/09 Q1017 NOSIG
  • 142000Z 23005KT 200V270 9999 FEW020 11/09 Q1017 NOSIG
  • 141930Z 25006KT 200V290 9999 FEW025 SCT045 12/09 Q1017 NOSIG

TAF TAF LECO
Valide du 14 à 21h jusqu'au 15 à 21h UTC


142000Z 1421/1521 28009KT 8000 SCT010 BKN030 TX13/1514Z TN07/1506Z
BECMG 1502/1505 34010KT
PROB30
TEMPO 1421/1508 4000 RA BKN010
Pas de NOTAMs connus pour ce terrain.



MET'MAP, la Météo Aéronautique d'un coup d'oeil ! - Copyright ORBIFLY Décembre 2007 - Disclaimer

ORBIFLY MET'MAP TEAM :

Programmation & Développement : Alexandra Zaïnal
Conception & Développement : Baudouin d'Aumeries
Co-Programmation & Développement : Marc-Olivier Méhu
Soutien technique & logistique : Manuel Goepfert

Contact : metmap@orbifly.com




SOURCES & CREDITS :

   NOAA